Portada
METAR-TAF:

METAR-TAF

Aeroports :

Hagåtña, Guam, Estats Units d'Amèrica

latitud: 13-29N, longitud: 144-48E, altitud: 91 m

Observació

L'informe es va fer fa 14 minuts, a les 13:54 UTC
Vent calma
Temperatura 26°C
Humitat 89%
Pressió 1012 hPa
Visibilitat: 16.1 km
Cel cobert a una alçada de 4900 ft

METAR: PGUM 241354Z 00000KT 10SM OVC049 26/24 A2987 RMK AO2 SLP108 T02610239 403110256

Hora: 00:08 (14:08 UTC)

Pronòstic

L'informe es va fer fa 2 hores i 43 minuts, a les 11:25 UTC
Pronòstic vàlid del 24 a les 12 UTC al 25 a les 18 UTC
Vent 4 kt amb direcció variable
Visibilitat: 10 km
Escasses núvols a una alçada de 2500 ft
Núvols disperses a una alçada de 6000 ft
A partir de les 25 a les 0000 UTC
Vent 6 kt del Est/Nord-Est
Visibilitat: 10 km
Núvols disperses a una alçada de 2000 ft
Núvols disperses a una alçada de 12000 ft
xàfecs en les proximitats

TAF: PGUM 241125Z 2412/2518 VRB04KT P6SM FEW025 SCT060 FM250000 07006KT P6SM VCSH SCT020 SCT120

Observacions i pronòstics meteorològics de més de 4000 aeroports (METAR i TAF).

Les estacions disponibles són els punts grocs i vermells al mapa.

Posi el ratolí al punt desitjat per veure el nom de l'estació.

Feu clic per veure les observacions i els pronòstics meteorològics.

Per canviar el mapa: feu clic els botons verds amb una creu de color negre per apropar; al botó verd amb un guió per allunyar la imatge; o en les fletxes verdes per a mapes adjacents.


METAR-TAF: